Delran, New Jersey
Current Conditions -  °F | °C
As of 12:54 PM on Friday 24 Oct 2014 (Local Time) from KPNE Reporting Station
Clear Clear  
Wind Chill: 67°   Ceiling: Unl
Heat Index: 67°   Visibility: 10mi
Dew Point: 42°   Wind: 15mph
Humidity: 40%   Direction: 310°NW
Pressure: 29.85"   Gusts: 23mph
Location:  40.0192°N, 74.9489°W
Report Text: KPNE 241654Z AUTO 31013G20KT 10SM CLR 19/06 A2985 RMK AO2 PK WND 35026/1557 SLP106 T01940056 TSNO
Loading
Personal Weather Stations






























Interactive Weather Map
Tropical Storm Tracking
New forecast layout! Learn more

10-Day Weather Forecast

Advertisements
Track Severe Weather on mobile